Latest Weather Observations for Cape Moreton

IDQ60801

Issued at 11:22 pm EST Friday 7 October 2022 (issued every 10 minutes, with the page automatically refreshed every 10 minutes)

About weather observations | Map of weather stations | Latest weather observations for QLD | Other Formats
Station Details ID: 040043 Name: CAPE MORETON LIGHTHOUSE Lat: -27.03 Lon: 153.47 Height: 99.9 m
Data from the previous 72 hours. | See also: Recent months at Cape Moreton
Date/Time
EST
Temp
°C
App
Temp
°C
Dew
Point
°C
Rel
Hum
%
Delta-T
°C
Wind Press
QNH
hPa
Press
MSL
hPa
Rain since
9am
mm
Dir  Spd
km/h
Gust
km/h
Spd
kts
Gust
kts
07/11:00pm 19.6 16.3 15.0 75 2.7 NE 26 32 14 17 1019.6 1019.3 0.0
07/10:30pm 19.7 16.2 15.4 76 2.5 NE 28 35 15 19 1019.5 1019.2 0.0
07/10:00pm 19.7 16.0 15.1 75 2.7 ENE 28 35 15 19 1019.6 1019.3 0.0
07/09:30pm 19.6 16.1 14.6 73 2.9 NE 26 32 14 17 1019.7 1019.4 0.0
07/09:00pm 19.6 16.6 14.8 74 2.8 NE 24 30 13 16 1019.6 1019.3 0.0
07/08:30pm 19.7 17.5 14.9 74 2.8 NE 20 26 11 14 1020.0 1019.7 0.0
07/08:00pm 19.8 17.6 14.8 73 2.9 NE 20 28 11 15 1019.9 1019.6 0.0
07/07:30pm 19.7 17.5 14.9 74 2.8 NE 20 26 11 14 1019.7 1019.4 0.0
07/07:00pm 19.7 17.7 14.9 74 2.8 NE 19 24 10 13 1019.3 1019.0 0.0
07/06:30pm 19.6 17.5 14.6 73 2.9 ENE 19 24 10 13 1019.1 1018.8 0.0
07/06:00pm 19.5 17.2 14.1 71 3.1 NE 19 24 10 13 1018.8 1018.5 0.0
07/05:30pm 19.6 17.8 14.4 72 3.0 NE 17 20 9 11 1018.7 1018.4 0.0
07/05:00pm 19.9 18.4 14.3 70 3.3 NE 15 19 8 10 1018.5 1018.2 0.0
07/04:30pm 20.2 18.9 14.8 71 3.2 ENE 15 19 8 10 1018.2 1017.9 0.0
07/04:00pm 20.9 19.1 14.5 67 3.7 NNE 17 20 9 11 1018.4 1018.1 0.0
07/03:30pm 21.2 19.4 14.4 65 4.0 NNE 17 22 9 12 1018.3 1018.0 0.0
07/03:00pm 21.0 18.7 14.2 65 4.0 NE 19 26 10 14 1018.3 1018.0 0.0
07/02:30pm 21.3 19.6 14.7 66 3.9 NE 17 24 9 13 1018.6 1018.3 0.0
07/02:00pm 21.6 19.8 14.5 64 4.2 ENE 17 22 9 12 1018.8 1018.5 0.0
07/01:30pm 21.4 18.5 14.1 63 4.3 ENE 22 26 12 14 1018.8 1018.5 0.0
07/01:00pm 21.7 18.6 14.4 63 4.3 ENE 24 30 13 16 1019.1 1018.8 0.0
07/12:30pm 21.7 18.3 13.6 60 4.7 ENE 24 32 13 17 1019.2 1018.9 0.0
07/12:00pm 21.9 18.6 14.0 61 4.6 ENE 24 33 13 18 1019.6 1019.3 0.0
07/11:30am 21.5 18.6 13.9 62 4.4 ENE 22 28 12 15 1020.1 1019.8 0.0
07/11:00am 22.4 19.5 15.0 63 4.4 ENE 24 32 13 17 1020.7 1020.4 0.0
07/10:30am 22.2 19.1 14.6 62 4.5 ENE 24 30 13 16 1020.9 1020.6 0.0
07/10:00am 21.1 17.8 14.0 64 4.1 ENE 24 30 13 16 1021.4 1021.1 0.0
07/09:30am 20.7 18.8 14.1 66 3.8 ENE 17 22 9 12 1021.7 1021.4 0.0
07/09:00am 20.7 17.9 14.4 67 3.7 ENE 22 26 12 14 1021.5 1021.2 0.6
07/08:30am 20.8 17.7 14.5 67 3.7 ENE 24 28 13 15 1021.4 1021.1 0.6
07/08:00am 22.2 20.0 14.8 63 4.4 ENE 20 26 11 14 1021.4 1021.1 0.6
07/07:30am 21.5 18.7 14.2 63 4.3 ENE 22 28 12 15 1021.0 1020.7 0.6
07/07:00am 21.4 18.8 15.0 67 3.8 ENE 22 28 12 15 1020.8 1020.5 0.6
07/06:30am 20.6 17.1 14.5 68 3.6 ENE 26 30 14 16 1020.6 1020.3 0.6
07/06:00am 19.2 16.6 13.8 71 3.1 E 20 24 11 13 1020.6 1020.3 0.6
07/05:30am 18.8 15.9 13.0 69 3.3 E 20 24 11 13 1020.2 1019.9 0.6
07/05:00am 18.9 15.4 13.5 71 3.1 ENE 24 30 13 16 1019.8 1019.5 0.6
07/04:30am 18.9 16.0 14.0 73 2.8 E 22 30 12 16 1019.6 1019.3 0.6
07/04:00am 19.1 17.3 14.4 74 2.7 ENE 17 22 9 12 1019.4 1019.1 0.6
07/03:30am 19.0 16.1 14.1 73 2.8 ENE 22 26 12 14 1019.4 1019.1 0.6
07/03:00am 18.7 16.1 13.3 71 3.1 ENE 19 22 10 12 1019.6 1019.3 0.6
07/02:30am 18.8 16.2 13.9 73 2.8 ENE 20 24 11 13 1019.7 1019.4 0.6
07/02:00am 18.7 16.1 13.3 71 3.1 ENE 19 22 10 12 1020.1 1019.8 0.6
07/01:30am 18.9 16.1 13.3 70 3.2 ENE 20 24 11 13 1020.4 1020.1 0.6
07/01:00am 19.0 15.6 13.8 72 3.0 ENE 24 28 13 15 1020.6 1020.3 0.6
07/12:30am 19.0 16.2 14.3 74 2.7 E 22 28 12 15 1020.9 1020.6 0.6
07/12:00am 19.0 16.1 14.1 73 2.8 ENE 22 28 12 15 1021.2 1020.9 0.6
 
Date/Time
EST
Temp
°C
App
Temp
°C
Dew
Point
°C
Rel
Hum
%
Delta-T
°C
Wind Press
QNH
hPa
Press
MSL
hPa
Rain since
9am
mm
Dir  Spd
km/h
Gust
km/h
Spd
kts
Gust
kts
06/11:30pm 19.1 16.0 14.4 74 2.7 ENE 24 28 13 15 1021.4 1021.1 0.6
06/11:00pm 18.8 16.8 14.9 78 2.3 NE 19 24 10 13 1021.6 1021.3 0.6
06/10:30pm 18.5 14.4 15.0 80 2.1 ENE 30 35 16 19 1021.9 1021.6 0.6
06/10:00pm 19.3 16.4 16.0 81 2.0 E 26 35 14 19 1022.1 1021.8 0.6
06/09:30pm 19.0 17.3 14.7 76 2.5 E 17 24 9 13 1022.4 1022.1 0.6
06/09:00pm 18.4 18.3 16.0 86 1.4 SE 11 13 6 7 1022.4 1022.1 0.6
06/08:30pm 18.2 18.1 16.0 87 1.3 SE 11 13 6 7 1022.4 1022.1 0.6
06/08:00pm 18.1 18.0 15.9 87 1.3 SE 11 13 6 7 1022.1 1021.8 0.6
06/07:30pm 17.8 17.1 15.4 86 1.4 E 13 20 7 11 1021.8 1021.5 0.6
06/07:00pm 17.6 16.8 16.1 91 0.9 E 15 20 8 11 1021.7 1021.4 0.6
06/06:30pm 17.7 17.5 16.6 93 0.7 E 13 17 7 9 1021.4 1021.1 0.6
06/06:00pm 17.4 15.5 15.7 90 1.0 E 20 28 11 15 1021.2 1020.9 0.4
06/05:30pm 18.0 17.3 15.3 84 1.6 NE 13 15 7 8 1020.8 1020.5 0.4
06/05:00pm 17.6 16.8 16.1 91 0.9 NNE 15 20 8 11 1020.6 1020.3 0.4
06/04:30pm 17.4 15.6 16.1 92 0.8 NE 20 26 11 14 1020.4 1020.1 0.4
06/04:00pm 17.4 15.6 16.1 92 0.8 ENE 20 28 11 15 1020.4 1020.1 0.4
06/03:30pm 18.1 16.0 16.3 89 1.1 ENE 22 26 12 14 1020.2 1019.9 0.0
06/03:00pm 18.8 16.9 16.6 87 1.3 E 22 30 12 16 1020.1 1019.8 0.0
06/02:30pm 19.7 17.6 16.2 80 2.1 E 22 32 12 17 1020.2 1019.9 0.0
06/02:00pm 21.5 19.6 16.7 74 2.9 E 22 30 12 16 1020.3 1020.0 0.0
06/01:30pm 20.8 18.9 15.1 70 3.4 ENE 19 22 10 12 1020.6 1020.3 0.0
06/01:00pm 21.2 20.5 15.3 69 3.5 NE 13 19 7 10 1020.9 1020.6 0.0
06/12:30pm 20.8 19.5 15.8 73 3.0 ENE 17 22 9 12 1021.3 1021.0 0.0
06/12:00pm 21.6 21.4 14.7 65 4.1 ESE 9 11 5 6 1021.8 1021.5 0.0
06/11:30am 20.7 20.9 14.6 68 3.6 SE 7 9 4 5 1022.3 1022.0 0.0
06/11:00am 21.5 21.3 14.6 65 4.1 ENE 9 13 5 7 1022.5 1022.2 0.0
06/10:30am 21.0 20.8 13.7 63 4.2 NNE 7 11 4 6 1022.6 1022.3 0.0
06/10:00am 19.8 19.5 14.4 71 3.1 NNW 9 13 5 7 1022.7 1022.4 0.0
06/09:30am 20.0 19.5 14.8 72 3.1 NW 11 13 6 7 1022.6 1022.3 0.0
06/09:00am 20.8 19.4 13.5 63 4.2 NE 13 17 7 9 1022.6 1022.3 0.2
06/08:30am 20.1 18.7 14.5 70 3.3 NE 15 19 8 10 1022.6 1022.3 0.2
06/08:00am 18.3 16.2 14.8 80 2.0 ENE 19 24 10 13 1022.7 1022.4 0.2
06/07:30am 18.5 15.1 14.8 79 2.2 ESE 26 33 14 18 1022.5 1022.2 0.2
06/07:00am 18.6 16.9 14.7 78 2.3 ESE 17 20 9 11 1022.5 1022.2 0.2
06/06:30am 19.2 18.2 13.4 69 3.3 ENE 11 15 6 8 1022.4 1022.1 0.2
06/06:00am 19.1 17.7 13.3 69 3.3 ENE 13 17 7 9 1022.0 1021.7 0.2
06/05:30am 18.9 17.2 13.5 71 3.1 E 15 20 8 11 1021.6 1021.3 0.2
06/05:00am 19.0 16.3 13.0 68 3.4 ENE 19 22 10 12 1021.3 1021.0 0.2
06/04:30am 18.9 16.3 13.1 69 3.3 E 19 24 10 13 1020.9 1020.6 0.2
06/04:00am 18.8 16.5 13.0 69 3.3 E 17 22 9 12 1020.7 1020.4 0.2
06/03:30am 18.8 16.0 12.5 67 3.5 E 19 24 10 13 1020.6 1020.3 0.2
06/03:00am 18.7 15.4 12.7 68 3.4 E 22 26 12 14 1020.5 1020.2 0.2
06/02:30am 18.5 15.4 13.4 72 2.9 E 22 30 12 16 1020.6 1020.3 0.2
06/02:00am 18.2 15.1 13.5 74 2.7 E 22 28 12 15 1020.8 1020.5 0.2
06/01:30am 17.6 16.4 14.1 80 2.0 ESE 13 19 7 10 1021.4 1021.1 0.2
06/01:00am 17.7 18.1 14.8 83 1.7 E 6 11 3 6 1022.2 1021.9 0.2
06/12:30am 17.8 18.1 14.5 81 1.9 E 6 7 3 4 1022.5 1022.2 0.0
06/12:00am 17.9 17.0 14.8 82 1.8 ENE 13 19 7 10 1022.4 1022.1 0.0
 
Date/Time
EST
Temp
°C
App
Temp
°C
Dew
Point
°C
Rel
Hum
%
Delta-T
°C
Wind Press
QNH
hPa
Press
MSL
hPa
Rain since
9am
mm
Dir  Spd
km/h
Gust
km/h
Spd
kts
Gust
kts
05/11:30pm 17.6 16.1 14.3 81 1.9 E 15 20 8 11 1022.8 1022.5 0.0
05/11:00pm 17.8 15.3 14.1 79 2.1 E 20 24 11 13 1023.3 1022.9 0.0
05/10:30pm 17.8 14.9 14.1 79 2.1 E 22 30 12 16 1023.4 1023.0 0.0
05/10:00pm 17.4 15.4 14.9 85 1.4 NE 19 24 10 13 1023.6 1023.2 0.0
05/09:30pm 16.7 14.1 14.9 89 1.0 E 22 30 12 16 1023.6 1023.2 0.0
05/09:00pm 16.0 12.3 14.9 93 0.6 ENE 28 33 15 18 1023.5 1023.1 0.0
05/08:30pm 17.3 13.6 15.1 87 1.3 ENE 28 32 15 17 1023.5 1023.1 0.0
05/08:00pm 17.6 14.4 14.3 81 1.9 E 24 30 13 16 1023.1 1022.7 0.0
05/07:30pm 17.1 13.5 15.3 89 1.1 E 28 41 15 22 1022.4 1022.1 0.0
05/07:00pm 17.7 14.1 15.3 86 1.4 E 28 39 15 21 1022.4 1022.1 0.0
05/06:30pm 17.8 14.6 14.3 80 2.0 E 24 32 13 17 1022.1 1021.8 0.0
05/06:00pm 17.8 14.7 14.5 81 1.9 E 24 33 13 18 1022.5 1022.2 0.0
05/05:30pm 17.8 14.4 14.7 82 1.8 ESE 26 33 14 18 1022.1 1021.8 0.0
05/05:00pm 18.0 14.2 14.7 81 1.9 ESE 28 39 15 21 1021.6 1021.3 0.0
05/04:30pm 18.5 13.9 13.4 72 2.9 ESE 30 35 16 19 1021.5 1021.2 0.0
05/04:00pm 18.8 14.5 14.3 75 2.6 ESE 30 37 16 20 1021.2 1020.9 0.0
05/03:30pm 19.1 15.3 14.6 75 2.6 ESE 28 39 15 21 1021.4 1021.1 0.0
05/03:00pm 19.6 16.4 14.2 71 3.1 ESE 24 30 13 16 1021.2 1020.9 0.0
05/02:30pm 19.2 17.4 14.5 74 2.7 SE 17 22 9 12 1021.4 1021.1 0.0
05/02:00pm 18.8 17.9 14.9 78 2.3 E 13 19 7 10 1021.8 1021.5 0.0
05/01:30pm 19.4 16.0 15.7 79 2.2 ESE 28 33 15 18 1022.1 1021.8 0.0
05/01:22pm 20.2 17.3 15.2 73 3.0 ESE 24 33 13 18 1022.0 1021.7 0.0
05/01:00pm 22.1 21.9 15.7 67 3.8 SE 11 15 6 8 1022.3 1022.0 0.0
05/12:30pm 21.0 20.5 13.9 64 4.1 SE 9 11 5 6 1022.7 1022.4 0.0
05/12:00pm 20.2 18.7 14.3 69 3.4 ESE 15 20 8 11 1022.8 1022.5 0.0
05/11:30am 21.3 21.0 14.5 65 4.0 ESE 9 13 5 7 1023.1 1022.7 0.0
05/11:00am 20.3 19.9 14.2 68 3.5 SE 9 13 5 7 1023.6 1023.2 0.0
05/10:30am 19.7 19.1 14.7 73 2.9 SE 11 15 6 8 1023.8 1023.4 0.0
05/10:00am 18.6 18.2 14.1 75 2.6 ESE 9 13 5 7 1023.8 1023.4 0.0
05/09:30am 18.8 15.5 15.1 79 2.2 E 26 35 14 19 1023.9 1023.5 0.0
05/09:19am 19.3 16.0 14.1 72 3.0 ESE 24 43 13 23 1023.5 1023.1 0.0
05/09:00am 20.3 18.2 13.7 66 3.8 SE 17 22 9 12 1023.7 1023.3 0.0
05/08:30am 20.6 18.2 14.3 67 3.7 SE 20 26 11 14 1023.9 1023.5 0.0
05/08:00am 19.7 16.9 13.2 66 3.7 E 20 26 11 14 1023.7 1023.3 0.0
05/07:30am 19.7 17.7 12.7 64 4.0 ESE 15 19 8 10 1023.7 1023.3 0.0
05/07:00am 19.4 17.3 12.4 64 3.9 E 15 19 8 10 1023.4 1023.0 0.0
05/06:30am 19.0 16.8 12.0 64 3.9 ENE 15 20 8 11 1023.2 1022.8 0.0
05/06:00am 18.9 16.4 12.2 65 3.7 ENE 17 20 9 11 1022.7 1022.4 0.0
05/05:30am 18.7 15.7 11.8 64 3.8 ENE 19 20 10 11 1022.3 1022.0 0.0
05/05:00am 18.5 15.3 11.8 65 3.7 ENE 20 26 11 14 1021.7 1021.4 0.0
05/04:30am 18.3 15.0 10.9 62 4.0 ENE 19 22 10 12 1021.4 1021.1 0.0
05/04:00am 18.3 15.6 11.6 65 3.7 ENE 17 20 9 11 1021.5 1021.2 0.0
05/03:30am 18.4 16.5 11.7 65 3.7 NE 13 17 7 9 1021.4 1021.1 0.0
05/03:00am 18.2 16.4 12.0 67 3.4 ENE 13 17 7 9 1021.1 1020.8 0.0
05/02:30am 18.2 16.2 11.5 65 3.7 ENE 13 15 7 8 1021.4 1021.1 0.0
05/02:00am 18.2 16.1 11.3 64 3.8 ENE 13 17 7 9 1021.4 1021.1 0.0
05/01:30am 18.1 15.5 10.7 62 4.0 ENE 15 19 8 10 1021.4 1021.1 0.0
05/01:00am 18.2 16.0 10.8 62 4.0 NE 13 20 7 11 1021.5 1021.2 0.0
05/12:30am 18.1 14.8 11.0 63 3.9 ENE 19 22 10 12 1021.7 1021.4 0.0
05/12:00am 18.3 14.6 10.2 59 4.3 ENE 20 26 11 14 1022.0 1021.7 0.0
 
Date/Time
EST
Temp
°C
App
Temp
°C
Dew
Point
°C
Rel
Hum
%
Delta-T
°C
Wind Press
QNH
hPa
Press
MSL
hPa
Rain since
9am
mm
Dir  Spd
km/h
Gust
km/h
Spd
kts
Gust
kts
04/11:30pm 18.4 14.8 9.7 57 4.6 ENE 19 26 10 14 1022.1 1021.8 0.0

Other formats

Comma delimited format used in spreadsheet applications
http://www.bom.gov.au/fwo/IDQ60801/IDQ60801.94594.axf

JavaScript Object Notation format (JSON) in row-major order
http://www.bom.gov.au/fwo/IDQ60801/IDQ60801.94594.json

Data quality

Most of these data are generated automatically and are frequently updated. Quality checks on data are not normally performed. It is possible for incorrect values to appear. Refer to information at About Latest Weather Observations and please check the disclaimer before using these data.